Time;durP1;ratioP1;P1;durP2;ratioP2;P2;SDS_P1;SDS_P2;PMS_P1;PMS_P2;Temp;Humidity;BMP_temperature;BMP_pressure;BME280_temperature;BME280_humidity;BME280_pressure;Samples;Min_cycle;Max_cycle;Signal;HPM_P1;HPM_P2
2021/09/03 00:01:25;;;;;;;38.78;19.58;;;;;;;;;;6257310;22;20562;31
2021/09/03 00:19:06;;;;;;;30.52;16.88;;;;;;;;;;6302446;22;20200;31
2021/09/03 00:26:02;;;;;;;33.72;16.50;;;;;;;;;;6171863;22;20198;31
2021/09/03 00:30:47;;;;;;;34.63;17.45;;;;;;;;;;5834497;22;20546;-60
2021/09/03 00:38:01;;;;;;;27.73;14.55;;;;;;;;;;5720237;22;20601;-60
2021/09/03 00:40:27;;;;;;;28.88;14.65;;;;;;;;;;5633068;22;20194;-61
2021/09/03 00:42:53;;;;;;;30.65;15.98;;;;;;;;;;5640369;22;20209;-61
2021/09/03 00:52:51;;;;;;;28.73;14.93;;;;;;;;;;6154476;22;1198181;-58
2021/09/03 01:09:27;;;;;;;27.73;14.45;;;;;;;;;;5904419;22;20514;31
2021/09/03 01:19:02;;;;;;;25.98;15.32;;;;;;;;;;6284441;22;20204;31
2021/09/03 01:40:19;;;;;;;37.47;17.65;;;;;;;;;;6203346;22;20719;31
2021/09/03 01:49:39;;;;;;;37.38;17.17;;;;;;;;;;6200495;22;20203;31
2021/09/03 01:53:46;;;;;;;31.63;16.55;;;;;;;;;;6257413;22;20502;-58
2021/09/03 02:10:17;;;;;;;34.20;16.52;;;;;;;;;;6310865;22;20195;31
2021/09/03 02:14:42;;;;;;;39.58;17.15;;;;;;;;;;6172903;22;20631;31
2021/09/03 02:31:46;;;;;;;39.42;16.77;;;;;;;;;;6293358;22;20196;31
2021/09/03 02:35:01;;;;;;;36.72;17.75;;;;;;;;;;6166868;22;20517;31
2021/09/03 02:41:36;;;;;;;37.35;17.67;;;;;;;;;;6290114;22;20522;31
2021/09/03 02:44:08;;;;;;;39.95;17.23;;;;;;;;;;6258866;22;20189;31
2021/09/03 02:55:28;;;;;;;43.97;17.92;;;;;;;;;;6257606;22;20543;-59
2021/09/03 03:03:27;;;;;;;41.42;17.55;;;;;;;;;;5896374;22;20506;31
2021/09/03 03:12:30;;;;;;;41.45;16.48;;;;;;;;;;6194272;22;20206;31
2021/09/03 03:19:22;;;;;;;37.97;16.38;;;;;;;;;;6198813;22;20202;31
2021/09/03 03:23:35;;;;;;;36.97;17.50;;;;;;;;;;6288170;22;20518;31
2021/09/03 03:32:41;;;;;;;38.50;16.40;;;;;;;;;;6254379;22;20197;31
2021/09/03 03:39:19;;;;;;;36.05;16.40;;;;;;;;;;6193279;22;20207;31
2021/09/03 03:53:11;;;;;;;35.72;15.45;;;;;;;;;;6223715;22;20202;31
2021/09/03 03:58:05;;;;;;;43.42;17.15;;;;;;;;;;5876663;22;20660;31
2021/09/03 04:07:24;;;;;;;39.40;15.93;;;;;;;;;;6289005;22;20192;31
2021/09/03 04:25:56;;;;;;;30.10;14.63;;;;;;;;;;6222789;22;20570;-59
2021/09/03 04:36:18;;;;;;;29.80;13.57;;;;;;;;;;6340406;22;20204;31
2021/09/03 04:56:51;;;;;;;27.52;12.40;;;;;;;;;;5672543;23;21151;31
2021/09/03 05:04:03;;;;;;;25.95;13.10;;;;;;;;;;6283715;22;20196;31
2021/09/03 05:08:37;;;;;;;21.85;12.43;;;;;;;;;;5882039;22;22770;31
2021/09/03 05:15:27;;;;;;;20.15;11.02;;;;;;;;;;6172478;22;20587;31
2021/09/03 05:17:53;;;;;;;19.35;10.60;;;;;;;;;;6169122;22;20222;31
2021/09/03 05:36:57;;;;;;;19.25;9.80;;;;;;;;;;5892286;22;20506;31
2021/09/03 05:44:16;;;;;;;20.70;9.43;;;;;;;;;;6202482;22;20548;31
2021/09/03 05:51:34;;;;;;;14.73;8.80;;;;;;;;;;6346196;22;20544;31
2021/09/03 06:05:38;;;;;;;16.50;8.25;;;;;;;;;;6259868;22;20557;31
2021/09/03 06:15:00;;;;;;;16.23;8.82;;;;;;;;;;6171397;23;20190;31
2021/09/03 06:19:14;;;;;;;15.30;8.98;;;;;;;;;;6227682;22;21399;31
2021/09/03 06:43:23;;;;;;;16.27;9.15;;;;;;;;;;6200131;22;20201;31
2021/09/03 06:50:37;;;;;;;14.40;7.53;;;;;;;;;;6194595;22;20213;31
2021/09/03 07:08:59;;;;;;;16.13;7.80;;;;;;;;;;6175149;22;20541;-60
2021/09/03 07:16:46;;;;;;;15.80;8.38;;;;;;;;;;6322383;22;20838;-59
2021/09/03 07:25:58;;;;;;;12.07;6.57;;;;;;;;;;6318558;22;20204;31
2021/09/03 07:30:08;;;;;;;16.50;7.13;;;;;;;;;;6204630;22;20512;-59
2021/09/03 07:39:34;;;;;;;10.40;7.25;;;;;;;;;;6142354;23;20571;-59
2021/09/03 07:43:41;;;;;;;15.70;7.90;;;;;;;;;;6228257;22;20547;-60
2021/09/03 07:46:06;;;;;;;11.93;6.57;;;;;;;;;;6201420;22;20190;31
2021/09/03 07:53:45;;;;;;;13.32;7.10;;;;;;;;;;6200845;22;20189;31
2021/09/03 07:56:11;;;;;;;13.93;7.60;;;;;;;;;;6198888;22;20378;31
2021/09/03 08:00:01;;;;;;;12.85;7.05;;;;;;;;;;5729981;22;20557;-61
2021/09/03 08:02:27;;;;;;;10.65;6.63;;;;;;;;;;5716183;22;20190;-59
2021/09/03 08:16:26;;;;;;;15.35;7.90;;;;;;;;;;6296128;22;20886;31
2021/09/03 08:24:20;;;;;;;16.08;7.38;;;;;;;;;;6328773;22;20500;-59
2021/09/03 08:26:46;;;;;;;11.00;7.10;;;;;;;;;;6260876;22;20189;-60
2021/09/03 08:40:45;;;;;;;9.82;7.20;;;;;;;;;;6234077;22;20537;31
2021/09/03 08:49:22;;;;;;;16.75;7.63;;;;;;;;;;5587768;22;22461;31
2021/09/03 09:00:26;;;;;;;10.45;7.07;;;;;;;;;;5674503;23;20211;31
2021/09/03 09:02:51;;;;;;;9.38;6.22;;;;;;;;;;5658375;22;20195;31
2021/09/03 09:12:35;;;;;;;12.45;5.75;;;;;;;;;;5637401;22;983013;31
2021/09/03 09:21:13;;;;;;;9.23;5.05;;;;;;;;;;6224957;22;20573;-60
2021/09/03 09:34:21;;;;;;;8.98;5.75;;;;;;;;;;5555238;23;20562;-60
2021/09/03 09:37:58;;;;;;;8.02;5.30;;;;;;;;;;6329828;22;21408;31
2021/09/03 09:47:21;;;;;;;10.70;5.85;;;;;;;;;;6374445;22;20545;-60
2021/09/03 09:52:13;;;;;;;8.68;5.25;;;;;;;;;;6357195;22;20228;-61
2021/09/03 09:56:11;;;;;;;10.63;5.88;;;;;;;;;;6330584;22;20286;31
2021/09/03 10:03:32;;;;;;;9.85;5.85;;;;;;;;;;6277130;22;20208;-60
2021/09/03 10:08:24;;;;;;;13.48;6.15;;;;;;;;;;6286555;22;20186;-60
2021/09/03 10:10:50;;;;;;;12.38;5.93;;;;;;;;;;6284262;22;20600;-60
2021/09/03 10:15:44;;;;;;;10.93;5.78;;;;;;;;;;6255687;22;20194;-60
2021/09/03 10:18:11;;;;;;;10.88;5.53;;;;;;;;;;6251572;22;20186;-60
2021/09/03 10:20:37;;;;;;;8.35;5.28;;;;;;;;;;6252580;22;20190;-60
2021/09/03 10:23:03;;;;;;;9.82;5.93;;;;;;;;;;6252798;22;20186;-60
2021/09/03 10:25:29;;;;;;;11.75;5.70;;;;;;;;;;6260877;22;20191;-60
2021/09/03 10:28:08;;;;;;;9.55;5.55;;;;;;;;;;6253392;22;20194;-60
2021/09/03 10:30:34;;;;;;;10.10;5.43;;;;;;;;;;6253889;23;20210;-60
2021/09/03 10:33:13;;;;;;;8.77;5.53;;;;;;;;;;6254187;23;20616;-61
2021/09/03 10:35:39;;;;;;;9.50;5.80;;;;;;;;;;6253984;23;20229;-61
2021/09/03 10:38:24;;;;;;;12.85;6.28;;;;;;;;;;6254188;23;20139;-61
2021/09/03 10:40:50;;;;;;;12.55;5.93;;;;;;;;;;6253912;23;20544;-61
2021/09/03 10:43:36;;;;;;;10.65;5.93;;;;;;;;;;6253808;23;20139;-61
2021/09/03 10:46:02;;;;;;;10.90;5.35;;;;;;;;;;6253700;23;20150;-61
2021/09/03 10:48:31;;;;;;;10.07;6.05;;;;;;;;;;6253707;23;20139;-62
2021/09/03 10:50:59;;;;;;;9.23;5.93;;;;;;;;;;6253765;23;20223;-62
2021/09/03 10:53:27;;;;;;;9.88;6.20;;;;;;;;;;6253757;23;20143;-61
2021/09/03 10:55:56;;;;;;;10.48;5.90;;;;;;;;;;6253729;23;20277;-62
2021/09/03 10:58:30;;;;;;;11.60;6.00;;;;;;;;;;6253921;23;20140;-61
2021/09/03 11:01:14;;;;;;;10.45;5.95;;;;;;;;;;6253838;23;20143;-61
2021/09/03 11:03:50;;;;;;;13.15;6.25;;;;;;;;;;6253762;23;20420;-61
2021/09/03 11:06:27;;;;;;;9.00;5.90;;;;;;;;;;6250424;23;20600;-64
2021/09/03 11:09:00;;;;;;;9.93;5.90;;;;;;;;;;6247228;23;20235;-62
2021/09/03 11:11:36;;;;;;;11.05;6.03;;;;;;;;;;6246964;23;20190;-61
2021/09/03 11:14:07;;;;;;;10.20;6.43;;;;;;;;;;6247399;23;20140;-61
2021/09/03 11:16:43;;;;;;;13.77;7.32;;;;;;;;;;6247239;23;20159;-60
2021/09/03 11:19:08;;;;;;;11.55;6.43;;;;;;;;;;6246865;23;20196;-60
2021/09/03 11:21:42;;;;;;;11.45;6.25;;;;;;;;;;6247268;23;20190;-61
2021/09/03 11:24:08;;;;;;;9.60;6.07;;;;;;;;;;6246850;23;20151;-62
2021/09/03 11:26:36;;;;;;;12.15;6.80;;;;;;;;;;6246915;22;20148;-62
2021/09/03 11:29:04;;;;;;;12.50;5.88;;;;;;;;;;6277791;22;20497;-62
2021/09/03 11:31:30;;;;;;;9.60;5.72;;;;;;;;;;6277513;22;20587;-61
2021/09/03 11:33:57;;;;;;;12.10;7.57;;;;;;;;;;6277377;22;20548;-61
2021/09/03 11:36:23;;;;;;;10.73;6.32;;;;;;;;;;6277955;22;20145;-62
2021/09/03 11:38:56;;;;;;;10.18;6.35;;;;;;;;;;6277655;22;20139;-62
2021/09/03 11:41:22;;;;;;;9.10;6.53;;;;;;;;;;6277973;22;20136;-61
2021/09/03 11:43:49;;;;;;;10.18;6.40;;;;;;;;;;6278033;22;20161;-61
2021/09/03 11:46:18;;;;;;;12.15;7.00;;;;;;;;;;6277429;22;20182;-62
2021/09/03 11:48:48;;;;;;;12.25;7.13;;;;;;;;;;6277196;22;20143;-62
2021/09/03 11:51:26;;;;;;;12.68;7.25;;;;;;;;;;6277939;22;20147;-62
2021/09/03 11:54:00;;;;;;;12.82;7.68;;;;;;;;;;6277453;22;20198;-62
2021/09/03 11:56:26;;;;;;;12.00;7.13;;;;;;;;;;6277407;22;20165;-62
2021/09/03 11:58:52;;;;;;;11.25;7.00;;;;;;;;;;6277287;22;20135;-61
2021/09/03 12:01:20;;;;;;;12.88;7.60;;;;;;;;;;6277859;22;20138;-62
2021/09/03 12:03:48;;;;;;;12.70;7.60;;;;;;;;;;6277198;22;20196;-62
2021/09/03 12:06:16;;;;;;;12.77;7.05;;;;;;;;;;6277785;22;20151;-62
2021/09/03 12:08:42;;;;;;;12.73;7.18;;;;;;;;;;6277450;22;20139;-62
2021/09/03 12:11:20;;;;;;;13.82;7.45;;;;;;;;;;6277246;22;20481;-62
2021/09/03 12:13:55;;;;;;;11.05;7.30;;;;;;;;;;6277237;22;20155;-61
2021/09/03 12:16:22;;;;;;;11.88;7.35;;;;;;;;;;6277130;22;20564;-62
2021/09/03 12:18:49;;;;;;;12.00;6.82;;;;;;;;;;6276569;22;20155;-61
2021/09/03 12:21:20;;;;;;;15.40;7.30;;;;;;;;;;6276897;22;20135;-62
2021/09/03 12:23:56;;;;;;;12.68;7.80;;;;;;;;;;6276846;22;20131;-62
2021/09/03 12:26:24;;;;;;;12.15;7.15;;;;;;;;;;6277752;22;20134;-62
2021/09/03 12:28:51;;;;;;;12.15;7.20;;;;;;;;;;6276722;22;20591;-62
2021/09/03 12:31:21;;;;;;;11.52;7.10;;;;;;;;;;6276866;22;20189;-61
2021/09/03 12:33:57;;;;;;;13.95;7.05;;;;;;;;;;6276758;22;20123;-61
2021/09/03 12:36:27;;;;;;;10.75;7.10;;;;;;;;;;6276514;22;20571;-61
2021/09/03 12:38:54;;;;;;;11.32;6.65;;;;;;;;;;6276570;22;20150;-61
2021/09/03 12:41:25;;;;;;;14.70;7.07;;;;;;;;;;6277019;22;20143;-61
2021/09/03 12:43:52;;;;;;;12.27;7.68;;;;;;;;;;6276612;22;20119;-61
2021/09/03 12:46:18;;;;;;;10.05;6.97;;;;;;;;;;6276626;22;20540;-61
2021/09/03 12:48:47;;;;;;;13.30;7.22;;;;;;;;;;6276508;22;20138;-61
2021/09/03 12:51:22;;;;;;;14.23;7.78;;;;;;;;;;6276731;22;20553;-61
2021/09/03 12:53:49;;;;;;;13.13;7.38;;;;;;;;;;6276672;22;20139;-62
2021/09/03 12:56:15;;;;;;;16.65;7.82;;;;;;;;;;6276765;22;20175;-62
2021/09/03 12:58:41;;;;;;;12.02;7.22;;;;;;;;;;6276386;22;20173;-62
2021/09/03 13:01:07;;;;;;;13.48;7.22;;;;;;;;;;6276481;22;20139;-61
2021/09/03 13:03:33;;;;;;;13.50;7.47;;;;;;;;;;6276345;22;20239;-61
2021/09/03 13:05:59;;;;;;;10.32;7.00;;;;;;;;;;6276025;22;20154;-61
2021/09/03 13:08:25;;;;;;;12.43;6.95;;;;;;;;;;6276256;22;20143;-61
2021/09/03 13:10:51;;;;;;;12.30;7.30;;;;;;;;;;6276239;22;20139;-61
2021/09/03 13:13:17;;;;;;;12.18;6.57;;;;;;;;;;6276294;22;20139;-61
2021/09/03 13:15:43;;;;;;;11.93;7.28;;;;;;;;;;6275989;22;20171;-61
2021/09/03 13:18:09;;;;;;;10.88;7.05;;;;;;;;;;6276005;22;20135;-61
2021/09/03 13:20:35;;;;;;;13.32;6.72;;;;;;;;;;6276357;22;20555;-61
2021/09/03 13:23:01;;;;;;;14.68;7.10;;;;;;;;;;6276248;22;20163;-61
2021/09/03 13:25:28;;;;;;;11.77;7.30;;;;;;;;;;6276146;22;20501;-61
2021/09/03 13:27:54;;;;;;;14.70;7.45;;;;;;;;;;6276176;22;20470;-61
2021/09/03 13:30:20;;;;;;;11.05;6.85;;;;;;;;;;6276020;22;20175;-61
2021/09/03 13:32:48;;;;;;;10.95;6.72;;;;;;;;;;6276169;22;20221;-61
2021/09/03 13:35:15;;;;;;;11.73;7.38;;;;;;;;;;6249109;22;20527;-61
2021/09/03 13:37:41;;;;;;;11.75;6.63;;;;;;;;;;6276174;22;20617;-61
2021/09/03 13:40:07;;;;;;;12.25;7.05;;;;;;;;;;6276014;22;20214;-61
2021/09/03 13:42:33;;;;;;;10.38;6.72;;;;;;;;;;6276223;22;20142;-61
2021/09/03 13:44:59;;;;;;;13.73;7.40;;;;;;;;;;6276005;22;20143;-62
2021/09/03 13:47:25;;;;;;;11.73;6.93;;;;;;;;;;6276434;22;20217;-60
2021/09/03 13:49:51;;;;;;;12.82;6.82;;;;;;;;;;6276055;22;20188;-60
2021/09/03 13:52:17;;;;;;;11.63;6.65;;;;;;;;;;6276138;22;20192;-60
2021/09/03 13:54:43;;;;;;;11.27;6.93;;;;;;;;;;6276160;22;20171;-61
2021/09/03 13:57:08;;;;;;;13.55;7.38;;;;;;;;;;6276165;22;20214;-62
2021/09/03 13:59:34;;;;;;;15.32;7.50;;;;;;;;;;6276056;22;20146;-62
2021/09/03 14:02:00;;;;;;;13.35;8.38;;;;;;;;;;6276205;22;20143;-61
2021/09/03 14:04:26;;;;;;;15.50;6.75;;;;;;;;;;6275936;22;20143;-63
2021/09/03 14:06:53;;;;;;;11.27;7.57;;;;;;;;;;6276134;22;20151;-61
2021/09/03 14:09:19;;;;;;;13.23;7.28;;;;;;;;;;6276055;22;20167;-61
2021/09/03 14:11:46;;;;;;;14.63;7.20;;;;;;;;;;6275996;22;20153;-62
2021/09/03 14:14:13;;;;;;;11.57;6.88;;;;;;;;;;6276268;22;20198;-62
2021/09/03 14:16:39;;;;;;;11.73;6.97;;;;;;;;;;6276399;22;20205;-61
2021/09/03 14:19:05;;;;;;;14.85;7.32;;;;;;;;;;6276289;22;20213;-64
2021/09/03 14:21:31;;;;;;;14.73;7.07;;;;;;;;;;6275944;22;20136;-62
2021/09/03 14:23:57;;;;;;;12.85;6.72;;;;;;;;;;6275815;22;20143;-62
2021/09/03 14:26:23;;;;;;;11.75;6.78;;;;;;;;;;6275836;22;20139;-61
2021/09/03 14:28:49;;;;;;;12.88;6.82;;;;;;;;;;6275911;22;20194;-62
2021/09/03 14:31:14;;;;;;;13.88;6.95;;;;;;;;;;6275920;22;20143;-62
2021/09/03 14:33:40;;;;;;;13.15;7.00;;;;;;;;;;6275962;22;20185;-62
2021/09/03 14:36:06;;;;;;;11.85;6.22;;;;;;;;;;6275890;22;20651;-61
2021/09/03 14:38:33;;;;;;;10.65;7.30;;;;;;;;;;6276008;22;20163;-63
2021/09/03 14:40:59;;;;;;;12.60;7.30;;;;;;;;;;6276637;22;20143;-63
2021/09/03 14:43:25;;;;;;;10.88;6.88;;;;;;;;;;6278004;22;20139;-62
2021/09/03 14:45:51;;;;;;;12.50;6.78;;;;;;;;;;6277980;22;20138;-62
2021/09/03 14:48:17;;;;;;;20.70;7.63;;;;;;;;;;6278077;22;20146;-62
2021/09/03 14:50:43;;;;;;;13.65;6.38;;;;;;;;;;6278076;22;20163;-61
2021/09/03 14:53:09;;;;;;;11.18;6.88;;;;;;;;;;6278545;22;20175;-62
2021/09/03 14:55:36;;;;;;;10.23;6.68;;;;;;;;;;6278581;22;20162;-61
2021/09/03 14:58:01;;;;;;;11.30;7.32;;;;;;;;;;6278385;22;20142;-62
2021/09/03 15:00:27;;;;;;;11.07;6.65;;;;;;;;;;6278697;22;20218;-62
2021/09/03 15:02:53;;;;;;;10.80;7.28;;;;;;;;;;6278445;22;20210;-61
2021/09/03 15:05:19;;;;;;;12.93;6.30;;;;;;;;;;6278269;22;20139;-62
2021/09/03 15:07:45;;;;;;;12.52;6.70;;;;;;;;;;6278790;22;20143;-62
2021/09/03 15:10:11;;;;;;;9.93;6.80;;;;;;;;;;6278516;22;20497;-62
2021/09/03 15:12:38;;;;;;;13.65;7.40;;;;;;;;;;6278345;22;20143;-61
2021/09/03 15:15:05;;;;;;;12.00;6.03;;;;;;;;;;6278540;22;20220;-62
2021/09/03 15:17:32;;;;;;;11.35;6.28;;;;;;;;;;6278337;22;20139;-62
2021/09/03 15:19:57;;;;;;;11.80;6.63;;;;;;;;;;6278517;22;20147;-62
2021/09/03 15:22:23;;;;;;;12.05;6.65;;;;;;;;;;6278282;22;20224;-62
2021/09/03 15:24:49;;;;;;;11.90;6.18;;;;;;;;;;6278285;22;20139;-62
2021/09/03 15:27:15;;;;;;;11.15;6.55;;;;;;;;;;6278229;22;20166;-63
2021/09/03 15:29:41;;;;;;;12.60;6.25;;;;;;;;;;6278519;22;20444;-62
2021/09/03 15:32:12;;;;;;;10.88;5.85;;;;;;;;;;6278092;22;20218;-62
2021/09/03 15:34:38;;;;;;;10.60;5.95;;;;;;;;;;6278326;22;20417;-62
2021/09/03 15:37:04;;;;;;;10.35;6.28;;;;;;;;;;6277991;22;20142;-62
2021/09/03 15:39:30;;;;;;;10.45;6.03;;;;;;;;;;6278060;22;20631;-62
2021/09/03 15:41:56;;;;;;;11.00;5.78;;;;;;;;;;6278289;22;20180;-63
2021/09/03 15:44:22;;;;;;;10.35;6.35;;;;;;;;;;6278087;22;20139;-64
2021/09/03 15:46:48;;;;;;;10.43;6.22;;;;;;;;;;6277964;22;20673;-62
2021/09/03 15:49:14;;;;;;;9.65;5.88;;;;;;;;;;6278035;22;20166;-63
2021/09/03 15:51:40;;;;;;;10.55;6.00;;;;;;;;;;6277702;22;20143;-63
2021/09/03 15:54:06;;;;;;;8.45;6.00;;;;;;;;;;6277684;22;20143;-63
2021/09/03 15:56:31;;;;;;;10.93;6.05;;;;;;;;;;6277610;22;20149;-62
2021/09/03 15:58:57;;;;;;;10.65;6.13;;;;;;;;;;6278003;22;20150;-62
2021/09/03 16:01:23;;;;;;;9.75;6.00;;;;;;;;;;6277942;22;20162;-63
2021/09/03 16:03:49;;;;;;;10.25;6.25;;;;;;;;;;6277637;22;20146;-62
2021/09/03 16:06:15;;;;;;;11.60;5.90;;;;;;;;;;6277531;22;20139;-62
2021/09/03 16:08:42;;;;;;;10.00;6.18;;;;;;;;;;6277840;22;20246;-61
2021/09/03 16:11:08;;;;;;;11.07;6.28;;;;;;;;;;6277546;22;20566;-63
2021/09/03 16:13:35;;;;;;;12.02;6.50;;;;;;;;;;6277782;22;20151;-62
2021/09/03 16:16:01;;;;;;;10.45;5.97;;;;;;;;;;6277301;22;20163;-62
2021/09/03 16:18:27;;;;;;;11.65;6.22;;;;;;;;;;6277515;22;20193;-62
2021/09/03 16:20:53;;;;;;;8.90;6.18;;;;;;;;;;6277887;22;20167;-62
2021/09/03 16:23:19;;;;;;;10.95;5.75;;;;;;;;;;6277478;22;20139;-63
2021/09/03 16:25:46;;;;;;;9.80;5.60;;;;;;;;;;6277378;22;20213;-62
2021/09/03 16:28:12;;;;;;;9.85;5.10;;;;;;;;;;6277135;22;20440;-62
2021/09/03 16:30:38;;;;;;;10.55;5.68;;;;;;;;;;6277269;22;20222;-62
2021/09/03 16:33:04;;;;;;;10.32;6.10;;;;;;;;;;6277541;22;20224;-62
2021/09/03 16:35:30;;;;;;;11.63;5.57;;;;;;;;;;6277340;22;20202;-62
2021/09/03 16:37:56;;;;;;;8.52;5.40;;;;;;;;;;6277089;22;20417;-63
2021/09/03 16:40:22;;;;;;;12.02;6.05;;;;;;;;;;6277561;22;20169;-66
2021/09/03 16:42:48;;;;;;;10.50;6.07;;;;;;;;;;6277366;22;20154;-65
2021/09/03 16:45:14;;;;;;;11.88;6.25;;;;;;;;;;6277509;22;20147;-66
2021/09/03 16:47:40;;;;;;;9.32;5.38;;;;;;;;;;6276915;22;20168;-66
2021/09/03 16:50:07;;;;;;;13.55;6.13;;;;;;;;;;6277417;22;20404;-67
2021/09/03 16:52:33;;;;;;;11.15;5.88;;;;;;;;;;6277082;22;20143;-66
2021/09/03 16:54:59;;;;;;;10.95;5.68;;;;;;;;;;6276772;22;20285;-66
2021/09/03 16:57:25;;;;;;;9.35;5.63;;;;;;;;;;6277008;22;20178;-65
2021/09/03 16:59:51;;;;;;;10.13;5.05;;;;;;;;;;6277053;22;20142;-66
2021/09/03 17:02:17;;;;;;;10.10;5.22;;;;;;;;;;6276935;22;20236;-65
2021/09/03 17:04:43;;;;;;;9.63;5.70;;;;;;;;;;6276474;22;20600;-65
2021/09/03 17:07:09;;;;;;;9.13;5.53;;;;;;;;;;6276553;22;20260;-65
2021/09/03 17:09:36;;;;;;;10.27;5.45;;;;;;;;;;6276928;22;20433;-65
2021/09/03 17:12:02;;;;;;;10.25;5.93;;;;;;;;;;6276493;22;20139;-65
2021/09/03 17:14:28;;;;;;;8.68;5.40;;;;;;;;;;6276465;22;20245;-65
2021/09/03 17:16:54;;;;;;;11.60;6.13;;;;;;;;;;6276493;22;20142;-66
2021/09/03 17:19:20;;;;;;;11.45;6.25;;;;;;;;;;6276404;22;20200;-65
2021/09/03 17:21:46;;;;;;;13.23;6.15;;;;;;;;;;6276259;22;20224;-65
2021/09/03 17:24:12;;;;;;;11.10;6.25;;;;;;;;;;6276217;22;20136;-65
2021/09/03 17:26:38;;;;;;;11.80;5.70;;;;;;;;;;6276059;22;20439;-64
2021/09/03 17:29:04;;;;;;;12.52;6.25;;;;;;;;;;6276383;22;20139;-66
2021/09/03 17:31:30;;;;;;;10.43;5.60;;;;;;;;;;6276224;22;20173;-65
2021/09/03 17:33:56;;;;;;;10.48;6.22;;;;;;;;;;6276252;22;20139;-65
2021/09/03 17:36:22;;;;;;;7.97;5.53;;;;;;;;;;6276028;22;20173;-65
2021/09/03 17:38:50;;;;;;;11.60;6.13;;;;;;;;;;6276339;22;20163;-65
2021/09/03 17:41:17;;;;;;;8.15;6.18;;;;;;;;;;6276324;22;20145;-65
2021/09/03 17:43:42;;;;;;;10.57;5.93;;;;;;;;;;6276163;22;20551;-65
2021/09/03 17:46:08;;;;;;;11.30;6.05;;;;;;;;;;6276510;22;20146;-65
2021/09/03 17:48:35;;;;;;;13.18;6.22;;;;;;;;;;6275990;22;20598;-65
2021/09/03 17:51:01;;;;;;;11.40;6.35;;;;;;;;;;6276130;22;20230;-65
2021/09/03 17:53:27;;;;;;;13.63;7.38;;;;;;;;;;6276187;22;20170;-64
2021/09/03 17:55:52;;;;;;;11.32;6.10;;;;;;;;;;6276023;22;20505;-65
2021/09/03 17:58:18;;;;;;;9.93;6.22;;;;;;;;;;6275956;22;20215;-64
2021/09/03 18:00:44;;;;;;;11.70;6.32;;;;;;;;;;6276004;22;20167;-64
2021/09/03 18:03:10;;;;;;;11.75;5.95;;;;;;;;;;6276360;22;20139;-65
2021/09/03 18:05:36;;;;;;;9.73;6.10;;;;;;;;;;6276013;22;20146;-65
2021/09/03 18:08:02;;;;;;;9.65;6.50;;;;;;;;;;6276287;22;20143;-64
2021/09/03 18:10:29;;;;;;;9.65;6.18;;;;;;;;;;6276310;22;20147;-66
2021/09/03 18:12:55;;;;;;;12.32;5.60;;;;;;;;;;6276092;22;20182;-65
2021/09/03 18:15:21;;;;;;;10.90;5.53;;;;;;;;;;6276112;22;20159;-64
2021/09/03 18:17:47;;;;;;;14.82;6.85;;;;;;;;;;6277438;22;20575;-65
2021/09/03 18:20:12;;;;;;;13.68;6.30;;;;;;;;;;6277819;22;20135;-64
2021/09/03 18:22:38;;;;;;;12.80;6.15;;;;;;;;;;6277613;22;20143;-64
2021/09/03 18:25:05;;;;;;;14.20;6.93;;;;;;;;;;6251048;22;20174;-65
2021/09/03 18:27:31;;;;;;;12.65;6.85;;;;;;;;;;6277626;22;20576;-65
2021/09/03 18:29:56;;;;;;;15.98;6.75;;;;;;;;;;6250937;22;20153;-64
2021/09/03 18:32:22;;;;;;;11.88;5.80;;;;;;;;;;6277570;22;20150;-64
2021/09/03 18:34:48;;;;;;;12.90;6.35;;;;;;;;;;6277668;22;20159;-64
2021/09/03 18:37:14;;;;;;;12.63;6.78;;;;;;;;;;6277564;22;20140;-65
2021/09/03 18:39:40;;;;;;;11.32;6.13;;;;;;;;;;6277755;22;20139;-65
2021/09/03 18:42:06;;;;;;;13.57;6.38;;;;;;;;;;6278014;22;20556;-64
2021/09/03 18:44:32;;;;;;;12.45;5.75;;;;;;;;;;6278063;22;20541;-64
2021/09/03 18:46:58;;;;;;;11.48;6.43;;;;;;;;;;6277606;22;20171;-65
2021/09/03 18:49:24;;;;;;;11.85;6.07;;;;;;;;;;6250714;22;20179;-64
2021/09/03 18:51:50;;;;;;;11.90;6.65;;;;;;;;;;6277610;22;20172;-65
2021/09/03 18:54:16;;;;;;;18.77;7.82;;;;;;;;;;6250589;22;20143;-64
2021/09/03 18:56:42;;;;;;;16.90;7.60;;;;;;;;;;6277938;22;20471;-63
2021/09/03 18:59:08;;;;;;;13.40;7.88;;;;;;;;;;6277462;22;20139;-65
2021/09/03 19:01:34;;;;;;;18.67;7.53;;;;;;;;;;6277868;22;20438;-64
2021/09/03 19:04:00;;;;;;;12.88;6.57;;;;;;;;;;6277470;22;20201;-64
2021/09/03 19:06:26;;;;;;;15.73;6.80;;;;;;;;;;6277835;22;20147;-64
2021/09/03 19:08:52;;;;;;;13.75;6.82;;;;;;;;;;6277389;22;20153;-64
2021/09/03 19:11:18;;;;;;;11.65;5.68;;;;;;;;;;6277401;22;20150;-65
2021/09/03 19:13:44;;;;;;;10.65;6.00;;;;;;;;;;6277168;22;20552;-64
2021/09/03 19:16:10;;;;;;;14.93;6.80;;;;;;;;;;6277623;22;20174;-65
2021/09/03 19:18:36;;;;;;;11.27;6.45;;;;;;;;;;6277606;22;20178;-64
2021/09/03 19:21:02;;;;;;;11.25;6.47;;;;;;;;;;6277363;22;20146;-64
2021/09/03 19:23:28;;;;;;;12.55;5.70;;;;;;;;;;6277573;22;20144;-64
2021/09/03 19:25:54;;;;;;;12.25;6.63;;;;;;;;;;6277209;22;20580;-65
2021/09/03 19:28:20;;;;;;;15.43;6.03;;;;;;;;;;6276981;22;20373;-65
2021/09/03 19:30:46;;;;;;;14.00;6.35;;;;;;;;;;6277334;22;20143;-64
2021/09/03 19:33:13;;;;;;;13.77;6.47;;;;;;;;;;6277514;22;20147;-64
2021/09/03 19:35:39;;;;;;;14.27;6.78;;;;;;;;;;6277214;22;20172;-64
2021/09/03 19:38:05;;;;;;;10.63;6.10;;;;;;;;;;6277594;22;20209;-65
2021/09/03 19:40:31;;;;;;;13.23;6.07;;;;;;;;;;6277261;22;20144;-64
2021/09/03 19:42:57;;;;;;;12.68;6.78;;;;;;;;;;6277299;22;20152;-65
2021/09/03 19:45:23;;;;;;;10.82;6.22;;;;;;;;;;6277673;22;20583;-64
2021/09/03 19:47:48;;;;;;;11.02;5.88;;;;;;;;;;6277297;22;20136;-64
2021/09/03 19:50:14;;;;;;;13.52;6.50;;;;;;;;;;6277274;22;20144;-64
2021/09/03 19:52:42;;;;;;;15.15;5.90;;;;;;;;;;6250736;22;20139;-64
2021/09/03 19:55:08;;;;;;;13.95;6.40;;;;;;;;;;6277362;22;20163;-64
2021/09/03 19:57:35;;;;;;;10.50;5.88;;;;;;;;;;6278094;22;20525;-64
2021/09/03 20:00:01;;;;;;;11.90;5.75;;;;;;;;;;6277622;22;20144;-64
2021/09/03 20:02:27;;;;;;;15.07;6.05;;;;;;;;;;6277517;22;20448;-64
2021/09/03 20:04:53;;;;;;;12.00;5.70;;;;;;;;;;6277591;22;20143;-66
2021/09/03 20:07:19;;;;;;;15.05;5.65;;;;;;;;;;6277813;22;20439;-64
2021/09/03 20:09:45;;;;;;;15.10;5.90;;;;;;;;;;6277566;22;20598;-63
2021/09/03 20:12:10;;;;;;;12.75;5.28;;;;;;;;;;6277227;22;20270;-64
2021/09/03 20:14:37;;;;;;;16.02;6.20;;;;;;;;;;6277045;22;20301;-64
2021/09/03 20:17:03;;;;;;;15.00;6.45;;;;;;;;;;6277152;22;20140;-65
2021/09/03 20:19:29;;;;;;;12.25;5.72;;;;;;;;;;6277058;22;20620;-64
2021/09/03 20:21:54;;;;;;;10.52;5.60;;;;;;;;;;6250221;22;20186;-64
2021/09/03 20:24:20;;;;;;;10.55;5.15;;;;;;;;;;6277557;22;20158;-64
2021/09/03 20:26:46;;;;;;;10.88;5.20;;;;;;;;;;6276851;22;20146;-64
2021/09/03 20:29:12;;;;;;;12.98;5.85;;;;;;;;;;6277213;22;20127;-64
2021/09/03 20:31:38;;;;;;;12.27;5.72;;;;;;;;;;6276866;22;20563;-64
2021/09/03 20:34:04;;;;;;;11.40;5.35;;;;;;;;;;6276830;22;20337;-64
2021/09/03 20:36:30;;;;;;;12.95;5.18;;;;;;;;;;6277104;22;20179;-64
2021/09/03 20:38:56;;;;;;;12.80;5.40;;;;;;;;;;6276280;22;20150;-64
2021/09/03 20:41:23;;;;;;;8.90;4.75;;;;;;;;;;6276745;22;20147;-64
2021/09/03 20:43:49;;;;;;;13.82;5.18;;;;;;;;;;6276675;22;20151;-64
2021/09/03 20:46:15;;;;;;;15.13;5.28;;;;;;;;;;6277125;22;20471;-65
2021/09/03 20:48:41;;;;;;;12.98;4.75;;;;;;;;;;6276590;22;20136;-64
2021/09/03 20:51:07;;;;;;;13.63;4.70;;;;;;;;;;6277124;22;20487;-65
2021/09/03 20:53:33;;;;;;;14.68;4.97;;;;;;;;;;6276815;22;20541;-65
2021/09/03 20:55:59;;;;;;;11.95;5.25;;;;;;;;;;6276632;22;20195;-65
2021/09/03 20:58:25;;;;;;;11.80;4.65;;;;;;;;;;6249900;22;20143;-65
2021/09/03 21:00:51;;;;;;;11.60;4.18;;;;;;;;;;6276542;22;20170;-64
2021/09/03 21:03:16;;;;;;;9.65;4.75;;;;;;;;;;6277025;22;20189;-64
2021/09/03 21:05:43;;;;;;;10.52;4.53;;;;;;;;;;6276954;22;20490;-66
2021/09/03 21:08:09;;;;;;;14.07;4.57;;;;;;;;;;6276664;22;20139;-65
2021/09/03 21:10:39;;;;;;;12.20;4.18;;;;;;;;;;6276805;22;20147;-65
2021/09/03 21:13:09;;;;;;;10.10;3.83;;;;;;;;;;6276598;22;20565;-64
2021/09/03 21:15:35;;;;;;;10.50;4.68;;;;;;;;;;6276783;22;20173;-61
2021/09/03 21:18:01;;;;;;;11.95;3.80;;;;;;;;;;6276498;22;20436;-61
2021/09/03 21:20:27;;;;;;;14.95;4.22;;;;;;;;;;6276728;22;20157;-61
2021/09/03 21:22:53;;;;;;;14.27;4.55;;;;;;;;;;6276805;22;20144;-61
2021/09/03 21:25:19;;;;;;;10.02;4.22;;;;;;;;;;6276167;22;20153;-61
2021/09/03 21:27:45;;;;;;;12.25;4.30;;;;;;;;;;6276053;22;20186;-61
2021/09/03 21:30:11;;;;;;;8.45;3.55;;;;;;;;;;6276126;22;20139;-60
2021/09/03 21:32:37;;;;;;;15.57;3.97;;;;;;;;;;6276288;22;20221;-61
2021/09/03 21:35:03;;;;;;;14.00;3.97;;;;;;;;;;6276408;22;20170;-60
2021/09/03 21:37:29;;;;;;;13.02;3.70;;;;;;;;;;6276185;22;20139;-60
2021/09/03 21:39:55;;;;;;;11.55;3.67;;;;;;;;;;6276331;22;20642;-62
2021/09/03 21:42:21;;;;;;;8.80;3.70;;;;;;;;;;6276090;22;20549;-61
2021/09/03 21:44:47;;;;;;;7.38;3.10;;;;;;;;;;6276079;22;20167;-61
2021/09/03 21:47:13;;;;;;;11.85;3.88;;;;;;;;;;6276103;22;20219;-63